Time;durP1;ratioP1;P1;durP2;ratioP2;P2;SDS_P1;SDS_P2;PMS_P1;PMS_P2;Temp;Humidity;BMP_temperature;BMP_pressure;BME280_temperature;BME280_humidity;BME280_pressure;Samples;Min_cycle;Max_cycle;Signal;HPM_P1;HPM_P2
2021/03/26 00:01:26;;;;;;;16.58;12.45;;;;;;;;;;4993697;28;20030;-75
2021/03/26 00:03:57;;;;;;;17.05;11.75;;;;;;;;;;4993636;28;20064;-72
2021/03/26 00:06:25;;;;;;;17.60;11.88;;;;;;;;;;4992141;28;20089;-76
2021/03/26 00:08:52;;;;;;;16.23;12.25;;;;;;;;;;4993500;28;20112;-74
2021/03/26 00:11:18;;;;;;;15.73;11.77;;;;;;;;;;4993428;28;20015;-72
2021/03/26 00:13:44;;;;;;;16.30;11.50;;;;;;;;;;4976127;28;20053;-75
2021/03/26 00:16:11;;;;;;;16.17;12.32;;;;;;;;;;4993046;28;20495;-75
2021/03/26 00:18:38;;;;;;;17.38;11.63;;;;;;;;;;4993351;28;20068;-76
2021/03/26 00:21:05;;;;;;;16.90;12.00;;;;;;;;;;4992883;28;20023;-78
2021/03/26 00:23:31;;;;;;;14.50;10.90;;;;;;;;;;4975665;28;20026;-74
2021/03/26 00:25:57;;;;;;;16.42;12.05;;;;;;;;;;4992860;28;20058;-76
2021/03/26 00:28:23;;;;;;;15.90;10.80;;;;;;;;;;4992921;28;20027;-76
2021/03/26 00:30:50;;;;;;;16.48;12.02;;;;;;;;;;4975471;28;20062;-74
2021/03/26 00:33:16;;;;;;;16.10;11.80;;;;;;;;;;4975430;28;20178;-73
2021/03/26 00:35:42;;;;;;;18.25;12.50;;;;;;;;;;4992999;28;20026;-74
2021/03/26 00:38:08;;;;;;;15.93;11.73;;;;;;;;;;4993651;28;20022;-74
2021/03/26 00:40:34;;;;;;;15.82;11.43;;;;;;;;;;4992483;28;20081;-76
2021/03/26 00:43:00;;;;;;;16.40;11.73;;;;;;;;;;5010397;28;20068;-74
2021/03/26 00:45:29;;;;;;;17.52;11.77;;;;;;;;;;4992534;28;20080;-77
2021/03/26 00:47:55;;;;;;;16.42;11.90;;;;;;;;;;4992841;28;20513;-76
2021/03/26 00:50:23;;;;;;;15.77;11.70;;;;;;;;;;4992704;28;20030;-76
2021/03/26 00:52:49;;;;;;;18.88;11.75;;;;;;;;;;4992623;28;20085;-74
2021/03/26 00:55:16;;;;;;;16.23;11.85;;;;;;;;;;4992085;28;20056;-72
2021/03/26 00:57:42;;;;;;;14.55;11.55;;;;;;;;;;4983650;28;20037;-70
2021/03/26 01:00:11;;;;;;;15.35;10.90;;;;;;;;;;4992366;28;20394;-75
2021/03/26 01:02:37;;;;;;;15.20;11.32;;;;;;;;;;4992252;28;20125;-73
2021/03/26 01:05:08;;;;;;;16.48;12.00;;;;;;;;;;4992006;28;20026;-75
2021/03/26 01:07:34;;;;;;;17.25;12.52;;;;;;;;;;4973930;28;20096;-75
2021/03/26 01:10:01;;;;;;;17.95;12.38;;;;;;;;;;4992597;28;20034;-73
2021/03/26 01:12:27;;;;;;;15.73;11.43;;;;;;;;;;4992028;28;20022;-73
2021/03/26 01:14:53;;;;;;;17.25;11.82;;;;;;;;;;4972716;28;20030;-74
2021/03/26 01:17:20;;;;;;;17.17;11.90;;;;;;;;;;4989135;28;20026;-73
2021/03/26 01:19:47;;;;;;;16.10;11.77;;;;;;;;;;4992323;28;20066;-74
2021/03/26 01:22:14;;;;;;;16.33;11.52;;;;;;;;;;4990791;28;20049;-74
2021/03/26 01:24:40;;;;;;;17.83;12.20;;;;;;;;;;4955860;28;20461;-73
2021/03/26 01:27:07;;;;;;;16.65;12.40;;;;;;;;;;4973909;28;20479;-73
2021/03/26 01:29:33;;;;;;;17.02;11.98;;;;;;;;;;4974392;28;20060;-73
2021/03/26 01:32:00;;;;;;;16.58;11.25;;;;;;;;;;4992382;28;20450;-73
2021/03/26 01:34:26;;;;;;;15.07;10.90;;;;;;;;;;4991769;28;20026;-72
2021/03/26 01:36:53;;;;;;;15.85;11.55;;;;;;;;;;4991729;28;20387;-73
2021/03/26 01:39:19;;;;;;;18.95;11.88;;;;;;;;;;4991782;28;20423;-73
2021/03/26 01:41:48;;;;;;;19.15;11.63;;;;;;;;;;4991961;28;20076;-73
2021/03/26 01:44:15;;;;;;;14.07;11.07;;;;;;;;;;4991674;28;20027;-73
2021/03/26 01:46:42;;;;;;;20.92;11.98;;;;;;;;;;4991648;28;20026;-73
2021/03/26 01:49:09;;;;;;;17.65;12.68;;;;;;;;;;4991687;28;20050;-73
2021/03/26 01:51:37;;;;;;;16.77;12.27;;;;;;;;;;4974675;28;20029;-72
2021/03/26 01:54:05;;;;;;;20.70;13.52;;;;;;;;;;4991840;28;20253;-73
2021/03/26 01:56:32;;;;;;;18.73;12.82;;;;;;;;;;4991581;28;20026;-73
2021/03/26 01:58:58;;;;;;;22.27;13.70;;;;;;;;;;4991566;28;20116;-73
2021/03/26 02:01:28;;;;;;;20.40;13.35;;;;;;;;;;4974201;28;20525;-73
2021/03/26 02:03:57;;;;;;;19.35;13.82;;;;;;;;;;4991876;28;20026;-73
2021/03/26 02:06:24;;;;;;;20.27;14.43;;;;;;;;;;4972798;28;20513;-72
2021/03/26 02:08:51;;;;;;;19.85;14.50;;;;;;;;;;4991499;28;20102;-73
2021/03/26 02:11:21;;;;;;;19.95;13.07;;;;;;;;;;4973549;28;20049;-73
2021/03/26 02:13:49;;;;;;;19.33;13.32;;;;;;;;;;4971483;28;20031;-73
2021/03/26 02:16:16;;;;;;;20.15;14.43;;;;;;;;;;4954279;28;20483;-73
2021/03/26 02:18:43;;;;;;;18.35;13.32;;;;;;;;;;4975732;28;20029;-73
2021/03/26 02:21:22;;;;;;;18.60;12.85;;;;;;;;;;4977293;28;20398;-73
2021/03/26 02:23:48;;;;;;;19.60;14.40;;;;;;;;;;4995063;28;20022;-73
2021/03/26 02:26:23;;;;;;;21.63;14.05;;;;;;;;;;4977384;28;20040;-72
2021/03/26 02:28:50;;;;;;;19.17;13.23;;;;;;;;;;4994559;28;20168;-73
2021/03/26 02:31:17;;;;;;;19.20;13.15;;;;;;;;;;4995154;28;20034;-73
2021/03/26 02:33:44;;;;;;;18.35;13.13;;;;;;;;;;4994519;28;20411;-73
2021/03/26 02:36:16;;;;;;;19.58;13.80;;;;;;;;;;4976951;28;20030;-73
2021/03/26 02:38:47;;;;;;;23.60;14.45;;;;;;;;;;4994681;28;20019;-73
2021/03/26 02:41:14;;;;;;;20.27;13.57;;;;;;;;;;4977187;28;20386;-73
2021/03/26 02:43:53;;;;;;;20.15;13.40;;;;;;;;;;4994278;28;20550;-73
2021/03/26 02:46:22;;;;;;;20.42;14.77;;;;;;;;;;4994626;28;20038;-72
2021/03/26 02:48:49;;;;;;;22.08;15.90;;;;;;;;;;4994384;28;20110;-72
2021/03/26 02:51:19;;;;;;;20.35;14.60;;;;;;;;;;4994914;28;20033;-73
2021/03/26 02:54:18;;;;;;;21.10;15.30;;;;;;;;;;4995001;28;20029;-72
2021/03/26 02:56:51;;;;;;;24.23;16.65;;;;;;;;;;4952873;28;20038;-73
2021/03/26 02:59:17;;;;;;;;;;;;;;;;;;4966514;28;20181;-73
2021/03/26 03:01:46;;;;;;;24.60;14.85;;;;;;;;;;4994969;28;19952;-72
2021/03/26 03:04:21;;;;;;;19.27;13.50;;;;;;;;;;4994704;28;20026;-73
2021/03/26 03:06:51;;;;;;;19.15;13.30;;;;;;;;;;4994911;28;20030;-72
2021/03/26 03:09:18;;;;;;;21.08;14.05;;;;;;;;;;4994702;28;20590;-72
2021/03/26 03:11:46;;;;;;;18.55;13.32;;;;;;;;;;4977456;28;20383;-73
2021/03/26 03:14:15;;;;;;;19.63;14.18;;;;;;;;;;4994704;28;20506;-73
2021/03/26 03:16:49;;;;;;;20.55;14.90;;;;;;;;;;4976766;28;20109;-72
2021/03/26 03:19:23;;;;;;;18.27;13.55;;;;;;;;;;4973914;28;20097;-72
2021/03/26 03:21:53;;;;;;;21.45;14.60;;;;;;;;;;4994620;28;20070;-72
2021/03/26 03:24:23;;;;;;;19.77;14.82;;;;;;;;;;4993925;28;20026;-72
2021/03/26 03:27:08;;;;;;;19.83;14.05;;;;;;;;;;4976876;28;20565;-73
2021/03/26 03:29:34;;;;;;;20.08;14.60;;;;;;;;;;4993637;28;20022;-72
2021/03/26 03:32:00;;;;;;;21.00;14.48;;;;;;;;;;4994088;28;20056;-73
2021/03/26 03:34:30;;;;;;;20.80;14.90;;;;;;;;;;4994107;28;20606;-72
2021/03/26 03:36:56;;;;;;;22.38;14.43;;;;;;;;;;4994190;28;20026;-72
2021/03/26 03:39:27;;;;;;;23.13;14.52;;;;;;;;;;4994224;28;20041;-73
2021/03/26 03:42:07;;;;;;;18.90;13.38;;;;;;;;;;4994497;28;20018;-72
2021/03/26 03:44:40;;;;;;;22.05;14.15;;;;;;;;;;4994102;28;20031;-73
2021/03/26 03:47:06;;;;;;;;;;;;;;;;;;4994196;28;20438;-72
2021/03/26 03:49:38;;;;;;;19.95;13.98;;;;;;;;;;4994344;28;20013;-72
2021/03/26 03:52:13;;;;;;;19.23;14.10;;;;;;;;;;4993983;28;20046;-73
2021/03/26 03:54:59;;;;;;;19.73;13.40;;;;;;;;;;4979714;28;20030;-73
2021/03/26 03:57:30;;;;;;;22.98;15.95;;;;;;;;;;4965899;28;20480;-73
2021/03/26 04:00:03;;;;;;;25.05;16.83;;;;;;;;;;4976424;28;20074;-72
2021/03/26 04:02:33;;;;;;;25.52;16.50;;;;;;;;;;4993793;28;20106;-73
2021/03/26 04:04:59;;;;;;;26.65;16.17;;;;;;;;;;4994008;28;20073;-73
2021/03/26 04:07:29;;;;;;;21.98;15.13;;;;;;;;;;4974615;28;20431;-72
2021/03/26 04:10:01;;;;;;;20.02;12.95;;;;;;;;;;4974798;28;20113;-73
2021/03/26 04:12:38;;;;;;;20.10;14.10;;;;;;;;;;4993470;28;20033;-72
2021/03/26 04:15:07;;;;;;;19.35;13.38;;;;;;;;;;4993582;28;20069;-73
2021/03/26 04:17:35;;;;;;;17.42;12.15;;;;;;;;;;4993326;28;20041;-73
2021/03/26 04:20:17;;;;;;;18.80;12.85;;;;;;;;;;4993545;28;20510;-72
2021/03/26 04:22:46;;;;;;;18.63;13.32;;;;;;;;;;4993332;28;20085;-73
2021/03/26 04:25:24;;;;;;;19.38;12.88;;;;;;;;;;4975643;28;20037;-73
2021/03/26 04:27:55;;;;;;;20.30;13.90;;;;;;;;;;4975513;28;20078;-73
2021/03/26 04:30:25;;;;;;;20.67;13.80;;;;;;;;;;4975860;28;20018;-73
2021/03/26 04:32:52;;;;;;;22.48;14.02;;;;;;;;;;4992993;28;20026;-73
2021/03/26 04:35:19;;;;;;;22.80;15.35;;;;;;;;;;4975219;28;20376;-73
2021/03/26 04:37:51;;;;;;;20.08;14.20;;;;;;;;;;4993117;28;20035;-73
2021/03/26 04:40:25;;;;;;;20.85;14.45;;;;;;;;;;4992920;28;20038;-73
2021/03/26 04:43:06;;;;;;;20.92;14.57;;;;;;;;;;4993431;28;20018;-72
2021/03/26 04:45:51;;;;;;;20.60;14.77;;;;;;;;;;4992858;28;20062;-73
2021/03/26 04:48:24;;;;;;;19.23;13.10;;;;;;;;;;4992751;28;20387;-73
2021/03/26 04:51:13;;;;;;;20.80;13.75;;;;;;;;;;4993110;28;20057;-73
2021/03/26 04:53:44;;;;;;;20.90;14.27;;;;;;;;;;4967555;28;20129;-73
2021/03/26 04:56:15;;;;;;;21.40;14.90;;;;;;;;;;4992574;28;20030;-73
2021/03/26 04:58:43;;;;;;;22.25;14.60;;;;;;;;;;4975062;28;20101;-73
2021/03/26 05:01:14;;;;;;;20.40;13.98;;;;;;;;;;4992688;28;20085;-72
2021/03/26 05:03:41;;;;;;;20.35;14.40;;;;;;;;;;4975055;28;20032;-73
2021/03/26 05:06:07;;;;;;;21.48;14.93;;;;;;;;;;4992428;28;20069;-73
2021/03/26 05:08:34;;;;;;;18.50;13.68;;;;;;;;;;4975110;28;20022;-73
2021/03/26 05:11:01;;;;;;;22.55;14.55;;;;;;;;;;4992523;28;20499;-73
2021/03/26 05:13:32;;;;;;;20.92;15.30;;;;;;;;;;4992528;28;20045;-72
2021/03/26 05:16:05;;;;;;;19.67;12.80;;;;;;;;;;4974686;28;20026;-73
2021/03/26 05:18:34;;;;;;;16.65;12.55;;;;;;;;;;4992304;28;20037;-73
2021/03/26 05:21:12;;;;;;;18.48;13.27;;;;;;;;;;4991944;28;20042;-73
2021/03/26 05:23:40;;;;;;;17.67;12.70;;;;;;;;;;4992408;28;20106;-72
2021/03/26 05:26:06;;;;;;;14.85;11.98;;;;;;;;;;4992169;28;20033;-73
2021/03/26 05:28:34;;;;;;;20.23;12.43;;;;;;;;;;4992356;28;20030;-72
2021/03/26 05:31:23;;;;;;;19.48;12.95;;;;;;;;;;4972972;28;20046;-72
2021/03/26 05:33:52;;;;;;;20.38;12.88;;;;;;;;;;4967510;28;20042;-73
2021/03/26 05:36:18;;;;;;;19.77;12.90;;;;;;;;;;4991901;28;20019;-73
2021/03/26 05:38:50;;;;;;;18.23;12.23;;;;;;;;;;4974490;28;20030;-73
2021/03/26 05:41:25;;;;;;;17.98;11.88;;;;;;;;;;4974383;28;20132;-73
2021/03/26 05:44:13;;;;;;;17.98;12.80;;;;;;;;;;4992068;28;20029;-72
2021/03/26 05:46:59;;;;;;;17.55;12.15;;;;;;;;;;4992296;28;20029;-73
2021/03/26 05:49:38;;;;;;;16.67;11.55;;;;;;;;;;4991914;28;20518;-72
2021/03/26 05:52:14;;;;;;;17.55;13.23;;;;;;;;;;4974188;28;20041;-73
2021/03/26 05:54:59;;;;;;;20.67;12.43;;;;;;;;;;4991674;28;20543;-73
2021/03/26 05:57:32;;;;;;;17.95;12.38;;;;;;;;;;4974557;28;20086;-72
2021/03/26 05:59:57;;;;;;;;;;;;;;;;;;4992359;28;20038;-72
2021/03/26 06:02:35;;;;;;;17.05;11.80;;;;;;;;;;4991971;28;19933;-73
2021/03/26 06:05:21;;;;;;;18.23;11.68;;;;;;;;;;4991226;28;20499;-73
2021/03/26 06:08:10;;;;;;;15.68;10.82;;;;;;;;;;4990295;28;20483;-73
2021/03/26 06:10:36;;;;;;;15.65;10.07;;;;;;;;;;4989321;28;20034;-72
2021/03/26 06:13:05;;;;;;;14.85;10.02;;;;;;;;;;4991014;28;20033;-73
2021/03/26 06:15:40;;;;;;;14.43;9.70;;;;;;;;;;4990239;28;20022;-72
2021/03/26 06:18:20;;;;;;;15.65;9.95;;;;;;;;;;4991188;28;20034;-73
2021/03/26 06:21:05;;;;;;;14.38;9.60;;;;;;;;;;4991335;28;20066;-73
2021/03/26 06:23:37;;;;;;;15.68;10.48;;;;;;;;;;4990919;28;20058;-73
2021/03/26 06:26:03;;;;;;;14.48;10.50;;;;;;;;;;4973547;28;20069;-73
2021/03/26 06:28:41;;;;;;;17.80;11.70;;;;;;;;;;4973723;28;20050;-73
2021/03/26 06:31:22;;;;;;;17.30;11.05;;;;;;;;;;4972239;28;20442;-76
2021/03/26 06:33:52;;;;;;;19.58;12.48;;;;;;;;;;4991797;28;20499;-73
2021/03/26 06:36:30;;;;;;;17.38;10.65;;;;;;;;;;4990147;28;20041;-73
2021/03/26 06:39:06;;;;;;;17.23;10.85;;;;;;;;;;4989783;28;20034;-73
2021/03/26 06:41:39;;;;;;;17.90;10.70;;;;;;;;;;4973495;28;20084;-73
2021/03/26 06:44:08;;;;;;;14.57;10.48;;;;;;;;;;4991449;28;20025;-73
2021/03/26 06:46:37;;;;;;;15.38;10.55;;;;;;;;;;4991517;28;20030;-74
2021/03/26 06:49:27;;;;;;;17.00;10.18;;;;;;;;;;4991655;28;20038;-73
2021/03/26 06:52:11;;;;;;;17.10;12.02;;;;;;;;;;4990204;28;20065;-74
2021/03/26 06:55:03;;;;;;;34.70;13.10;;;;;;;;;;4988580;28;20030;-71
2021/03/26 06:57:44;;;;;;;20.90;12.48;;;;;;;;;;4981328;28;20047;-72
2021/03/26 07:00:10;;;;;;;18.98;11.32;;;;;;;;;;4988121;28;20034;-72
2021/03/26 07:02:55;;;;;;;23.13;11.80;;;;;;;;;;4990430;28;20022;-72
2021/03/26 07:05:23;;;;;;;39.63;11.88;;;;;;;;;;4994128;28;20041;-77
2021/03/26 07:08:08;;;;;;;26.80;13.50;;;;;;;;;;4994211;28;20065;-76
2021/03/26 07:10:53;;;;;;;20.58;13.63;;;;;;;;;;4976705;28;20113;-71
2021/03/26 07:13:22;;;;;;;18.60;12.20;;;;;;;;;;4993959;28;20022;-74
2021/03/26 07:16:00;;;;;;;20.88;11.27;;;;;;;;;;4993707;28;20031;-73
2021/03/26 07:18:39;;;;;;;14.55;10.18;;;;;;;;;;4976543;28;20109;-72
2021/03/26 07:21:11;;;;;;;16.80;10.90;;;;;;;;;;4992684;28;20041;-73
2021/03/26 07:23:46;;;;;;;23.70;13.45;;;;;;;;;;4980833;28;20054;-73
2021/03/26 07:26:30;;;;;;;22.40;12.55;;;;;;;;;;4988505;28;20019;-75
2021/03/26 07:29:02;;;;;;;19.50;13.30;;;;;;;;;;4985491;28;20026;-74
2021/03/26 07:31:48;;;;;;;18.10;13.63;;;;;;;;;;4994040;28;20088;-73
2021/03/26 07:34:26;;;;;;;22.30;13.60;;;;;;;;;;4991963;28;20467;-74
2021/03/26 07:37:01;;;;;;;25.08;13.90;;;;;;;;;;4976293;28;20125;-76
2021/03/26 07:39:46;;;;;;;19.50;13.55;;;;;;;;;;4993765;28;20043;-75
2021/03/26 07:42:12;;;;;;;21.58;14.73;;;;;;;;;;4976168;28;20018;-75
2021/03/26 07:44:44;;;;;;;19.85;13.15;;;;;;;;;;4975869;28;20113;-76
2021/03/26 07:47:17;;;;;;;26.35;14.93;;;;;;;;;;4993697;28;20022;-72
2021/03/26 07:49:43;;;;;;;22.73;13.38;;;;;;;;;;4991602;28;20053;-73
2021/03/26 07:52:16;;;;;;;24.20;15.38;;;;;;;;;;4993248;28;20053;-72
2021/03/26 07:54:58;;;;;;;22.38;14.90;;;;;;;;;;4993233;28;20082;-72
2021/03/26 07:57:24;;;;;;;23.30;14.77;;;;;;;;;;4993102;28;20517;-76
2021/03/26 08:00:09;;;;;;;22.65;13.85;;;;;;;;;;4993346;28;20042;-73
2021/03/26 08:02:55;;;;;;;22.38;13.25;;;;;;;;;;4972493;28;20085;-74
2021/03/26 08:05:31;;;;;;;22.50;12.85;;;;;;;;;;4946082;28;20046;-78
2021/03/26 08:08:15;;;;;;;25.38;13.25;;;;;;;;;;4967189;28;20054;-73
2021/03/26 08:11:00;;;;;;;22.10;12.10;;;;;;;;;;4983287;28;20031;-69
2021/03/26 08:13:26;;;;;;;20.77;13.48;;;;;;;;;;4988352;28;20049;-71
2021/03/26 08:15:52;;;;;;;20.02;13.57;;;;;;;;;;4974248;28;20070;-75
2021/03/26 08:18:28;;;;;;;25.45;13.93;;;;;;;;;;4975161;28;20057;-74
2021/03/26 08:21:06;;;;;;;21.15;12.93;;;;;;;;;;4974574;28;20042;-72
2021/03/26 08:23:47;;;;;;;23.10;11.95;;;;;;;;;;4963034;28;20395;-74
2021/03/26 08:26:32;;;;;;;24.80;12.90;;;;;;;;;;4989462;28;20507;-72
2021/03/26 08:28:58;;;;;;;29.92;13.45;;;;;;;;;;4980904;28;20090;-76
2021/03/26 08:31:38;;;;;;;17.90;12.30;;;;;;;;;;4987525;28;20117;-75
2021/03/26 08:34:23;;;;;;;17.75;12.20;;;;;;;;;;4972597;28;20093;-73
2021/03/26 08:36:59;;;;;;;25.58;13.23;;;;;;;;;;4981526;28;20041;-72
2021/03/26 08:39:37;;;;;;;18.60;13.77;;;;;;;;;;4992064;28;20026;-72
2021/03/26 08:42:12;;;;;;;19.95;13.60;;;;;;;;;;4989037;28;20037;-70
2021/03/26 08:44:39;;;;;;;19.90;11.88;;;;;;;;;;4983053;28;20110;-71
2021/03/26 08:47:10;;;;;;;17.08;12.65;;;;;;;;;;4984539;28;20044;-74
2021/03/26 08:49:46;;;;;;;19.17;13.10;;;;;;;;;;4989973;28;20050;-74
2021/03/26 08:52:15;;;;;;;19.33;11.90;;;;;;;;;;4990480;28;20022;-72
2021/03/26 08:55:00;;;;;;;17.85;12.57;;;;;;;;;;4990700;28;20019;-71
2021/03/26 08:57:26;;;;;;;24.70;12.75;;;;;;;;;;4990341;28;20030;-77
2021/03/26 09:00:04;;;;;;;19.70;11.25;;;;;;;;;;4973217;28;20034;-72
2021/03/26 09:02:48;;;;;;;18.05;11.00;;;;;;;;;;4990699;28;20019;-70
2021/03/26 09:05:33;;;;;;;19.75;12.35;;;;;;;;;;4973088;28;20062;-71
2021/03/26 09:08:05;;;;;;;18.23;12.40;;;;;;;;;;5003528;28;20030;-75
2021/03/26 09:10:50;;;;;;;18.85;12.73;;;;;;;;;;4990737;28;20024;-73
2021/03/26 09:13:27;;;;;;;23.58;13.02;;;;;;;;;;4972999;28;20034;-72
2021/03/26 09:15:53;;;;;;;17.42;11.73;;;;;;;;;;4990413;28;20371;-70
2021/03/26 09:18:37;;;;;;;18.38;13.73;;;;;;;;;;4990515;28;20040;-72
2021/03/26 09:21:12;;;;;;;20.00;12.40;;;;;;;;;;4972786;28;20100;-70
2021/03/26 09:23:48;;;;;;;19.00;12.10;;;;;;;;;;4990023;28;20043;-75
2021/03/26 09:26:33;;;;;;;20.33;11.48;;;;;;;;;;4990279;28;20018;-72
2021/03/26 09:29:02;;;;;;;21.90;12.02;;;;;;;;;;4989533;28;20438;-71
2021/03/26 09:31:40;;;;;;;17.83;12.02;;;;;;;;;;4989730;28;20057;-70
2021/03/26 09:34:16;;;;;;;13.13;9.30;;;;;;;;;;4974668;28;20014;-78
2021/03/26 09:36:44;;;;;;;15.60;11.45;;;;;;;;;;4990209;28;20027;-74
2021/03/26 09:39:10;;;;;;;19.00;11.93;;;;;;;;;;4990087;28;20073;-72
2021/03/26 09:41:50;;;;;;;20.92;11.75;;;;;;;;;;4990008;28;20042;-71
2021/03/26 09:44:35;;;;;;;14.43;10.85;;;;;;;;;;4989998;28;20031;-74
2021/03/26 09:47:04;;;;;;;17.33;11.63;;;;;;;;;;4989939;28;20025;-67
2021/03/26 09:49:38;;;;;;;18.45;10.85;;;;;;;;;;4989819;28;20117;-71
2021/03/26 09:52:13;;;;;;;24.80;12.77;;;;;;;;;;4972382;28;20173;-71
2021/03/26 09:54:44;;;;;;;16.38;10.20;;;;;;;;;;4989603;28;20357;-72
2021/03/26 09:57:21;;;;;;;19.30;11.05;;;;;;;;;;4972705;28;20116;-71
2021/03/26 09:59:59;;;;;;;13.93;9.38;;;;;;;;;;4998164;28;20042;-76
2021/03/26 10:02:36;;;;;;;16.92;11.68;;;;;;;;;;4973024;28;20022;-75
2021/03/26 10:05:17;;;;;;;14.20;9.55;;;;;;;;;;4973025;28;20031;-74
2021/03/26 10:07:51;;;;;;;13.55;9.55;;;;;;;;;;5002297;28;20558;-85
2021/03/26 10:12:59;;;;;;;15.27;9.98;;;;;;;;;;4990053;28;20104;-79
2021/03/26 10:15:28;;;;;;;15.45;9.90;;;;;;;;;;4990211;28;20018;-74
2021/03/26 10:17:59;;;;;;;14.10;9.88;;;;;;;;;;4972645;28;20034;-74
2021/03/26 10:20:38;;;;;;;19.80;10.73;;;;;;;;;;4990026;28;20510;-75
2021/03/26 10:23:23;;;;;;;13.57;9.55;;;;;;;;;;4957482;28;20472;-77
2021/03/26 10:25:52;;;;;;;14.60;10.38;;;;;;;;;;4969238;28;20041;-73
2021/03/26 10:28:33;;;;;;;17.58;9.98;;;;;;;;;;4970337;28;20023;-75
2021/03/26 10:31:05;;;;;;;16.13;10.52;;;;;;;;;;4969900;28;20480;-76
2021/03/26 10:33:33;;;;;;;15.30;9.70;;;;;;;;;;4968710;28;20062;-76
2021/03/26 10:36:13;;;;;;;12.15;9.30;;;;;;;;;;4968799;28;20022;-77
2021/03/26 10:38:43;;;;;;;12.07;8.68;;;;;;;;;;4968404;28;20027;-76
2021/03/26 10:41:17;;;;;;;14.15;9.63;;;;;;;;;;4971875;28;20066;-72
2021/03/26 10:43:57;;;;;;;12.73;8.00;;;;;;;;;;4966364;28;20066;-71
2021/03/26 10:46:29;;;;;;;11.57;8.60;;;;;;;;;;4972177;28;20030;-73
2021/03/26 10:49:00;;;;;;;13.00;9.02;;;;;;;;;;4972240;28;20399;-77
2021/03/26 10:51:31;;;;;;;12.60;8.57;;;;;;;;;;4972621;28;20026;-74
2021/03/26 10:54:15;;;;;;;15.68;9.02;;;;;;;;;;4974031;28;20026;-79
2021/03/26 10:56:47;;;;;;;14.75;8.13;;;;;;;;;;4972883;28;20039;-78
2021/03/26 10:59:31;;;;;;;22.77;9.45;;;;;;;;;;4974129;28;20379;-75
2021/03/26 11:02:03;;;;;;;17.58;9.68;;;;;;;;;;4976369;28;20078;-76
2021/03/26 11:04:35;;;;;;;14.57;8.07;;;;;;;;;;4973771;28;20023;-75
2021/03/26 11:07:08;;;;;;;13.30;9.00;;;;;;;;;;4973823;28;20045;-73
2021/03/26 11:09:40;;;;;;;13.80;8.13;;;;;;;;;;4972126;28;20487;-74
2021/03/26 11:12:18;;;;;;;12.65;7.45;;;;;;;;;;4971105;28;20018;-74
2021/03/26 11:14:47;;;;;;;13.60;9.18;;;;;;;;;;4971901;28;20031;-75
2021/03/26 11:17:19;;;;;;;14.82;9.65;;;;;;;;;;4971862;28;20027;-76
2021/03/26 11:20:04;;;;;;;17.17;9.50;;;;;;;;;;4973247;28;20066;-76
2021/03/26 11:22:31;;;;;;;15.77;8.93;;;;;;;;;;4957623;28;20063;-74
2021/03/26 11:25:05;;;;;;;14.15;8.52;;;;;;;;;;4973222;28;20547;-74
2021/03/26 11:27:33;;;;;;;22.73;10.30;;;;;;;;;;4972994;28;20526;-75
2021/03/26 11:30:18;;;;;;;17.55;9.15;;;;;;;;;;4973481;28;20031;-80
2021/03/26 11:32:47;;;;;;;17.30;9.00;;;;;;;;;;4972205;28;20074;-77
2021/03/26 11:35:15;;;;;;;14.90;8.90;;;;;;;;;;4971410;28;20034;-76
2021/03/26 11:37:47;;;;;;;13.00;8.80;;;;;;;;;;4971838;28;20030;-72
2021/03/26 11:40:16;;;;;;;14.13;9.27;;;;;;;;;;4959917;28;20031;-74
2021/03/26 11:42:45;;;;;;;19.42;12.30;;;;;;;;;;4973196;28;20019;-73
2021/03/26 11:45:15;;;;;;;26.23;7.82;;;;;;;;;;4972319;28;20125;-75
2021/03/26 11:47:43;;;;;;;24.15;8.32;;;;;;;;;;4973093;28;20027;-76
2021/03/26 11:50:27;;;;;;;17.80;9.45;;;;;;;;;;4972567;28;20023;-76
2021/03/26 11:52:59;;;;;;;18.70;9.70;;;;;;;;;;4976462;28;20035;-76
2021/03/26 11:55:29;;;;;;;13.93;8.45;;;;;;;;;;4974187;28;20046;-74
2021/03/26 11:58:15;;;;;;;24.92;9.63;;;;;;;;;;4973193;28;20034;-75
2021/03/26 12:00:50;;;;;;;17.48;11.25;;;;;;;;;;4965006;28;20047;-73
2021/03/26 12:03:21;;;;;;;19.90;8.73;;;;;;;;;;4965624;28;20093;-73
2021/03/26 12:05:56;;;;;;;19.50;10.48;;;;;;;;;;4968024;28;20484;-73
2021/03/26 12:08:28;;;;;;;15.68;9.68;;;;;;;;;;4972777;28;20070;-73
2021/03/26 12:11:01;;;;;;;17.20;8.20;;;;;;;;;;4971421;28;20027;-73
2021/03/26 12:13:47;;;;;;;14.93;10.32;;;;;;;;;;4972806;28;20057;-74
2021/03/26 12:16:21;;;;;;;20.40;9.45;;;;;;;;;;4973002;28;20026;-73
2021/03/26 12:18:53;;;;;;;18.75;8.93;;;;;;;;;;4960774;28;20027;-72
2021/03/26 12:21:32;;;;;;;13.88;9.38;;;;;;;;;;4987341;28;20053;-71
2021/03/26 12:24:01;;;;;;;15.20;10.00;;;;;;;;;;4980741;28;20030;-70
2021/03/26 12:26:32;;;;;;;18.67;9.60;;;;;;;;;;4988310;28;20040;-71
2021/03/26 12:29:09;;;;;;;14.10;8.85;;;;;;;;;;4988399;28;20026;-71
2021/03/26 12:31:37;;;;;;;13.60;8.90;;;;;;;;;;4985413;28;20030;-72
2021/03/26 12:34:23;;;;;;;12.93;8.88;;;;;;;;;;4992022;28;20061;-77
2021/03/26 12:36:52;;;;;;;15.63;8.18;;;;;;;;;;4991484;28;20065;-73
2021/03/26 12:39:26;;;;;;;15.50;8.65;;;;;;;;;;4991280;28;20026;-71
2021/03/26 12:42:02;;;;;;;12.93;8.65;;;;;;;;;;4991783;28;20041;-72
2021/03/26 12:44:30;;;;;;;12.75;8.57;;;;;;;;;;4991802;28;20022;-72
2021/03/26 12:46:56;;;;;;;24.10;10.73;;;;;;;;;;4989422;28;20045;-71
2021/03/26 12:49:34;;;;;;;12.85;9.30;;;;;;;;;;4992751;28;20038;-70
2021/03/26 12:52:03;;;;;;;12.82;8.80;;;;;;;;;;4990162;28;20486;-72
2021/03/26 12:54:48;;;;;;;14.73;9.20;;;;;;;;;;4991049;28;20030;-74
2021/03/26 12:57:23;;;;;;;19.02;8.45;;;;;;;;;;4991341;28;20024;-71
2021/03/26 12:59:57;;;;;;;14.57;9.15;;;;;;;;;;4991256;28;20037;-73
2021/03/26 13:02:33;;;;;;;16.20;9.15;;;;;;;;;;4990470;28;20054;-71
2021/03/26 13:04:59;;;;;;;12.90;9.15;;;;;;;;;;4973039;28;20035;-70
2021/03/26 13:07:44;;;;;;;14.32;9.20;;;;;;;;;;4973276;28;20015;-71
2021/03/26 13:10:26;;;;;;;15.98;9.10;;;;;;;;;;4973473;28;20041;-71
2021/03/26 13:12:53;;;;;;;12.23;7.70;;;;;;;;;;4982466;28;20023;-69
2021/03/26 13:15:24;;;;;;;12.20;8.63;;;;;;;;;;4992826;28;20022;-69
2021/03/26 13:18:01;;;;;;;14.90;8.05;;;;;;;;;;4993051;28;20023;-71
2021/03/26 13:20:27;;;;;;;16.02;8.27;;;;;;;;;;4990725;28;20034;-70
2021/03/26 13:23:02;;;;;;;16.40;9.65;;;;;;;;;;4990544;28;20526;-68
2021/03/26 13:25:43;;;;;;;16.60;10.00;;;;;;;;;;4973395;28;20018;-68
2021/03/26 13:28:20;;;;;;;22.77;9.40;;;;;;;;;;4989871;28;20153;-72
2021/03/26 13:30:55;;;;;;;19.25;10.80;;;;;;;;;;4978264;28;20074;-70
2021/03/26 13:33:37;;;;;;;21.85;10.18;;;;;;;;;;4988141;28;20061;-68
2021/03/26 13:36:23;;;;;;;38.85;8.07;;;;;;;;;;4981142;28;20101;-70
2021/03/26 13:38:55;;;;;;;18.00;8.48;;;;;;;;;;4989987;28;20030;-69
2021/03/26 13:41:31;;;;;;;23.13;9.65;;;;;;;;;;4983317;28;20034;-74
2021/03/26 13:44:16;;;;;;;17.65;8.02;;;;;;;;;;4989193;28;20046;-69
2021/03/26 13:46:44;;;;;;;18.50;9.30;;;;;;;;;;4990266;28;20030;-70
2021/03/26 13:49:21;;;;;;;12.52;8.73;;;;;;;;;;4971159;28;20038;-69
2021/03/26 13:51:49;;;;;;;24.48;7.82;;;;;;;;;;4989668;28;20026;-73
2021/03/26 13:54:21;;;;;;;13.82;8.02;;;;;;;;;;4990047;28;20423;-73
2021/03/26 13:56:48;;;;;;;14.25;8.68;;;;;;;;;;4981199;28;20026;-71
2021/03/26 13:59:32;;;;;;;13.30;7.85;;;;;;;;;;4989631;28;20026;-75
2021/03/26 14:02:00;;;;;;;16.92;8.13;;;;;;;;;;4991029;28;20050;-76
2021/03/26 14:04:34;;;;;;;12.52;7.47;;;;;;;;;;4990738;28;20061;-69
2021/03/26 14:07:03;;;;;;;13.55;8.32;;;;;;;;;;4990957;28;20130;-68
2021/03/26 14:09:32;;;;;;;11.85;7.75;;;;;;;;;;4973219;28;20050;-78
2021/03/26 14:12:00;;;;;;;16.05;7.97;;;;;;;;;;4990085;28;20033;-69
2021/03/26 14:14:26;;;;;;;12.25;6.82;;;;;;;;;;4992290;28;20022;-72
2021/03/26 14:16:55;;;;;;;10.73;7.15;;;;;;;;;;4977266;28;20034;-72
2021/03/26 14:19:36;;;;;;;12.13;7.53;;;;;;;;;;4993982;28;20034;-71
2021/03/26 14:22:14;;;;;;;11.55;7.07;;;;;;;;;;4994748;28;20054;-69
2021/03/26 14:24:59;;;;;;;31.60;18.40;;;;;;;;;;4976746;28;20022;-72
2021/03/26 14:27:38;;;;;;;13.38;8.18;;;;;;;;;;4976486;28;20062;-69
2021/03/26 14:30:08;;;;;;;13.23;8.45;;;;;;;;;;4993817;28;20097;-68
2021/03/26 14:32:38;;;;;;;25.35;17.55;;;;;;;;;;4994691;28;20088;-68
2021/03/26 14:35:08;;;;;;;11.45;7.13;;;;;;;;;;4993251;28;20030;-68
2021/03/26 14:37:39;;;;;;;11.85;7.15;;;;;;;;;;4972222;28;20019;-69
2021/03/26 14:40:17;;;;;;;20.27;13.25;;;;;;;;;;4972540;28;20038;-69
2021/03/26 14:42:45;;;;;;;22.88;13.98;;;;;;;;;;4990145;28;20038;-69
2021/03/26 14:45:29;;;;;;;25.40;14.95;;;;;;;;;;4975407;28;20033;-71
2021/03/26 14:48:08;;;;;;;26.35;17.52;;;;;;;;;;4975860;28;20030;-73
2021/03/26 14:50:36;;;;;;;30.20;14.35;;;;;;;;;;4976405;28;20391;-68
2021/03/26 14:53:06;;;;;;;21.73;13.63;;;;;;;;;;4994959;28;20086;-70
2021/03/26 14:55:53;;;;;;;22.60;12.35;;;;;;;;;;4995043;28;20028;-71
2021/03/26 14:58:51;;;;;;;21.40;13.98;;;;;;;;;;4995049;28;20058;-73